sensor_id;sensor_type;location;lat;lon;timestamp;P1;durP1;ratioP1;P2;durP2;ratioP2
64615;SDS011;51027;42.162;24.754;2023-04-06T00:01:11;16.40;;;6.85;;
64615;SDS011;51027;42.162;24.754;2023-04-06T00:03:36;17.30;;;7.15;;
64615;SDS011;51027;42.162;24.754;2023-04-06T00:06:02;21.20;;;8.18;;
64615;SDS011;51027;42.162;24.754;2023-04-06T00:08:28;18.05;;;7.68;;
64615;SDS011;51027;42.162;24.754;2023-04-06T00:10:54;19.17;;;7.75;;
64615;SDS011;51027;42.162;24.754;2023-04-06T00:13:19;17.85;;;8.73;;
64615;SDS011;51027;42.162;24.754;2023-04-06T00:15:45;16.85;;;6.85;;
64615;SDS011;51027;42.162;24.754;2023-04-06T00:18:10;15.27;;;6.18;;
64615;SDS011;51027;42.162;24.754;2023-04-06T00:20:36;18.48;;;8.30;;
64615;SDS011;51027;42.162;24.754;2023-04-06T00:23:01;20.10;;;8.02;;
64615;SDS011;51027;42.162;24.754;2023-04-06T00:25:27;18.60;;;7.60;;
64615;SDS011;51027;42.162;24.754;2023-04-06T00:27:52;19.25;;;7.70;;
64615;SDS011;51027;42.162;24.754;2023-04-06T00:30:18;14.45;;;5.60;;
64615;SDS011;51027;42.162;24.754;2023-04-06T00:32:43;17.35;;;7.13;;
64615;SDS011;51027;42.162;24.754;2023-04-06T00:35:08;16.42;;;7.00;;
64615;SDS011;51027;42.162;24.754;2023-04-06T00:37:34;15.80;;;6.60;;
64615;SDS011;51027;42.162;24.754;2023-04-06T00:40:00;15.68;;;6.40;;
64615;SDS011;51027;42.162;24.754;2023-04-06T00:42:25;16.60;;;6.82;;
64615;SDS011;51027;42.162;24.754;2023-04-06T00:44:54;17.58;;;7.35;;
64615;SDS011;51027;42.162;24.754;2023-04-06T00:47:22;15.27;;;6.45;;
64615;SDS011;51027;42.162;24.754;2023-04-06T00:49:48;16.77;;;6.75;;
64615;SDS011;51027;42.162;24.754;2023-04-06T00:52:13;16.73;;;7.72;;
64615;SDS011;51027;42.162;24.754;2023-04-06T00:54:39;17.27;;;7.60;;
64615;SDS011;51027;42.162;24.754;2023-04-06T00:57:05;14.70;;;6.60;;
64615;SDS011;51027;42.162;24.754;2023-04-06T00:59:30;16.17;;;6.97;;
64615;SDS011;51027;42.162;24.754;2023-04-06T01:01:56;16.83;;;6.00;;
64615;SDS011;51027;42.162;24.754;2023-04-06T01:04:22;18.65;;;8.23;;
64615;SDS011;51027;42.162;24.754;2023-04-06T01:06:48;20.35;;;7.88;;
64615;SDS011;51027;42.162;24.754;2023-04-06T01:09:14;20.88;;;9.55;;
64615;SDS011;51027;42.162;24.754;2023-04-06T01:11:39;18.65;;;6.78;;
64615;SDS011;51027;42.162;24.754;2023-04-06T01:14:05;20.27;;;8.07;;
64615;SDS011;51027;42.162;24.754;2023-04-06T01:16:30;20.35;;;9.05;;
64615;SDS011;51027;42.162;24.754;2023-04-06T01:18:56;21.48;;;9.05;;
64615;SDS011;51027;42.162;24.754;2023-04-06T01:21:21;21.85;;;8.85;;
64615;SDS011;51027;42.162;24.754;2023-04-06T01:23:47;20.08;;;8.38;;
64615;SDS011;51027;42.162;24.754;2023-04-06T01:26:12;19.58;;;8.23;;
64615;SDS011;51027;42.162;24.754;2023-04-06T01:28:38;18.83;;;7.90;;
64615;SDS011;51027;42.162;24.754;2023-04-06T01:31:05;18.48;;;7.72;;
64615;SDS011;51027;42.162;24.754;2023-04-06T01:33:32;18.55;;;8.02;;
64615;SDS011;51027;42.162;24.754;2023-04-06T01:35:57;17.40;;;7.45;;
64615;SDS011;51027;42.162;24.754;2023-04-06T01:38:23;19.77;;;7.93;;
64615;SDS011;51027;42.162;24.754;2023-04-06T01:40:48;20.83;;;8.30;;
64615;SDS011;51027;42.162;24.754;2023-04-06T01:43:13;18.83;;;8.10;;
64615;SDS011;51027;42.162;24.754;2023-04-06T01:45:39;18.05;;;7.75;;
64615;SDS011;51027;42.162;24.754;2023-04-06T01:48:06;19.52;;;8.88;;
64615;SDS011;51027;42.162;24.754;2023-04-06T01:50:32;19.35;;;8.38;;
64615;SDS011;51027;42.162;24.754;2023-04-06T01:52:57;22.00;;;9.25;;
64615;SDS011;51027;42.162;24.754;2023-04-06T01:55:23;25.63;;;10.93;;
64615;SDS011;51027;42.162;24.754;2023-04-06T01:57:48;18.98;;;7.57;;
64615;SDS011;51027;42.162;24.754;2023-04-06T02:00:14;19.45;;;8.07;;
64615;SDS011;51027;42.162;24.754;2023-04-06T02:02:40;19.45;;;8.07;;
64615;SDS011;51027;42.162;24.754;2023-04-06T02:05:07;17.48;;;7.30;;
64615;SDS011;51027;42.162;24.754;2023-04-06T02:07:33;20.80;;;8.60;;
64615;SDS011;51027;42.162;24.754;2023-04-06T02:09:58;18.23;;;8.10;;
64615;SDS011;51027;42.162;24.754;2023-04-06T02:12:23;19.85;;;8.68;;
64615;SDS011;51027;42.162;24.754;2023-04-06T02:14:49;19.67;;;8.23;;
64615;SDS011;51027;42.162;24.754;2023-04-06T02:17:15;18.50;;;7.50;;
64615;SDS011;51027;42.162;24.754;2023-04-06T02:19:40;19.10;;;8.57;;
64615;SDS011;51027;42.162;24.754;2023-04-06T02:22:06;20.15;;;8.18;;
64615;SDS011;51027;42.162;24.754;2023-04-06T02:24:31;18.13;;;7.10;;
64615;SDS011;51027;42.162;24.754;2023-04-06T02:26:57;19.38;;;8.13;;
64615;SDS011;51027;42.162;24.754;2023-04-06T02:29:22;20.00;;;8.55;;
64615;SDS011;51027;42.162;24.754;2023-04-06T02:31:48;22.40;;;9.63;;
64615;SDS011;51027;42.162;24.754;2023-04-06T02:34:13;20.02;;;9.02;;
64615;SDS011;51027;42.162;24.754;2023-04-06T02:36:45;22.35;;;8.68;;
64615;SDS011;51027;42.162;24.754;2023-04-06T02:39:11;24.52;;;7.75;;
64615;SDS011;51027;42.162;24.754;2023-04-06T02:41:38;21.73;;;9.35;;
64615;SDS011;51027;42.162;24.754;2023-04-06T02:44:03;15.88;;;7.82;;
64615;SDS011;51027;42.162;24.754;2023-04-06T02:46:31;20.73;;;9.38;;
64615;SDS011;51027;42.162;24.754;2023-04-06T02:48:56;15.85;;;8.15;;
64615;SDS011;51027;42.162;24.754;2023-04-06T02:51:22;23.15;;;9.75;;
64615;SDS011;51027;42.162;24.754;2023-04-06T02:53:47;21.83;;;9.82;;
64615;SDS011;51027;42.162;24.754;2023-04-06T02:56:12;20.58;;;9.13;;
64615;SDS011;51027;42.162;24.754;2023-04-06T02:58:38;20.63;;;9.45;;
64615;SDS011;51027;42.162;24.754;2023-04-06T03:01:03;20.15;;;8.80;;
64615;SDS011;51027;42.162;24.754;2023-04-06T03:03:29;20.23;;;9.20;;
64615;SDS011;51027;42.162;24.754;2023-04-06T03:05:55;20.20;;;8.10;;
64615;SDS011;51027;42.162;24.754;2023-04-06T03:08:23;23.38;;;10.30;;
64615;SDS011;51027;42.162;24.754;2023-04-06T03:10:49;19.75;;;9.00;;
64615;SDS011;51027;42.162;24.754;2023-04-06T03:13:14;20.10;;;9.10;;
64615;SDS011;51027;42.162;24.754;2023-04-06T03:15:39;17.85;;;7.40;;
64615;SDS011;51027;42.162;24.754;2023-04-06T03:18:05;20.45;;;8.45;;
64615;SDS011;51027;42.162;24.754;2023-04-06T03:20:30;21.10;;;9.30;;
64615;SDS011;51027;42.162;24.754;2023-04-06T03:22:56;17.70;;;7.97;;
64615;SDS011;51027;42.162;24.754;2023-04-06T03:25:21;22.23;;;9.95;;
64615;SDS011;51027;42.162;24.754;2023-04-06T03:27:47;19.65;;;8.57;;
64615;SDS011;51027;42.162;24.754;2023-04-06T03:30:12;20.98;;;8.82;;
64615;SDS011;51027;42.162;24.754;2023-04-06T03:32:38;19.63;;;8.63;;
64615;SDS011;51027;42.162;24.754;2023-04-06T03:35:03;19.88;;;8.43;;
64615;SDS011;51027;42.162;24.754;2023-04-06T03:37:29;20.00;;;8.65;;
64615;SDS011;51027;42.162;24.754;2023-04-06T03:39:55;21.65;;;8.60;;
64615;SDS011;51027;42.162;24.754;2023-04-06T03:42:20;20.05;;;8.63;;
64615;SDS011;51027;42.162;24.754;2023-04-06T03:44:46;20.70;;;9.27;;
64615;SDS011;51027;42.162;24.754;2023-04-06T03:47:11;20.23;;;9.65;;
64615;SDS011;51027;42.162;24.754;2023-04-06T03:49:36;19.02;;;8.38;;
64615;SDS011;51027;42.162;24.754;2023-04-06T03:52:02;20.52;;;9.20;;
64615;SDS011;51027;42.162;24.754;2023-04-06T03:54:27;21.00;;;9.43;;
64615;SDS011;51027;42.162;24.754;2023-04-06T03:56:53;18.52;;;8.93;;
64615;SDS011;51027;42.162;24.754;2023-04-06T03:59:18;19.80;;;9.30;;
64615;SDS011;51027;42.162;24.754;2023-04-06T04:01:43;21.80;;;8.80;;
64615;SDS011;51027;42.162;24.754;2023-04-06T04:04:09;22.30;;;10.35;;
64615;SDS011;51027;42.162;24.754;2023-04-06T04:06:35;22.27;;;8.80;;
64615;SDS011;51027;42.162;24.754;2023-04-06T04:09:01;21.30;;;9.80;;
64615;SDS011;51027;42.162;24.754;2023-04-06T04:11:28;21.05;;;9.93;;
64615;SDS011;51027;42.162;24.754;2023-04-06T04:13:53;19.90;;;10.32;;
64615;SDS011;51027;42.162;24.754;2023-04-06T04:16:19;16.95;;;7.57;;
64615;SDS011;51027;42.162;24.754;2023-04-06T04:18:44;18.63;;;8.85;;
64615;SDS011;51027;42.162;24.754;2023-04-06T04:21:12;19.50;;;9.93;;
64615;SDS011;51027;42.162;24.754;2023-04-06T04:23:37;22.60;;;9.73;;
64615;SDS011;51027;42.162;24.754;2023-04-06T04:26:03;18.48;;;8.48;;
64615;SDS011;51027;42.162;24.754;2023-04-06T04:28:28;21.05;;;9.73;;
64615;SDS011;51027;42.162;24.754;2023-04-06T04:30:54;22.55;;;9.82;;
64615;SDS011;51027;42.162;24.754;2023-04-06T04:33:19;18.90;;;8.77;;
64615;SDS011;51027;42.162;24.754;2023-04-06T04:35:45;21.48;;;9.40;;
64615;SDS011;51027;42.162;24.754;2023-04-06T04:38:10;18.23;;;7.65;;
64615;SDS011;51027;42.162;24.754;2023-04-06T04:40:36;19.58;;;8.98;;
64615;SDS011;51027;42.162;24.754;2023-04-06T04:43:01;21.30;;;9.65;;
64615;SDS011;51027;42.162;24.754;2023-04-06T04:45:27;18.60;;;7.65;;
64615;SDS011;51027;42.162;24.754;2023-04-06T04:47:52;20.17;;;9.00;;
64615;SDS011;51027;42.162;24.754;2023-04-06T04:50:18;18.35;;;8.55;;
64615;SDS011;51027;42.162;24.754;2023-04-06T04:52:43;18.60;;;8.35;;
64615;SDS011;51027;42.162;24.754;2023-04-06T04:55:08;19.80;;;8.70;;
64615;SDS011;51027;42.162;24.754;2023-04-06T04:57:34;19.83;;;7.97;;
64615;SDS011;51027;42.162;24.754;2023-04-06T04:59:59;21.02;;;10.27;;
64615;SDS011;51027;42.162;24.754;2023-04-06T05:02:25;18.50;;;8.70;;
64615;SDS011;51027;42.162;24.754;2023-04-06T05:04:50;19.77;;;8.80;;
64615;SDS011;51027;42.162;24.754;2023-04-06T05:07:16;19.73;;;7.93;;
64615;SDS011;51027;42.162;24.754;2023-04-06T05:09:43;21.33;;;8.32;;
64615;SDS011;51027;42.162;24.754;2023-04-06T05:12:09;18.73;;;8.27;;
64615;SDS011;51027;42.162;24.754;2023-04-06T05:14:35;20.63;;;9.25;;
64615;SDS011;51027;42.162;24.754;2023-04-06T05:17:00;20.13;;;9.27;;
64615;SDS011;51027;42.162;24.754;2023-04-06T05:19:26;20.45;;;8.77;;
64615;SDS011;51027;42.162;24.754;2023-04-06T05:21:51;22.08;;;10.10;;
64615;SDS011;51027;42.162;24.754;2023-04-06T05:24:17;21.65;;;9.82;;
64615;SDS011;51027;42.162;24.754;2023-04-06T05:26:42;17.92;;;8.27;;
64615;SDS011;51027;42.162;24.754;2023-04-06T05:29:08;23.00;;;9.65;;
64615;SDS011;51027;42.162;24.754;2023-04-06T05:31:33;17.42;;;8.45;;
64615;SDS011;51027;42.162;24.754;2023-04-06T05:33:59;21.40;;;8.77;;
64615;SDS011;51027;42.162;24.754;2023-04-06T05:36:24;20.30;;;9.02;;
64615;SDS011;51027;42.162;24.754;2023-04-06T05:38:50;21.65;;;7.53;;
64615;SDS011;51027;42.162;24.754;2023-04-06T05:41:17;21.38;;;9.43;;
64615;SDS011;51027;42.162;24.754;2023-04-06T05:43:43;18.20;;;7.57;;
64615;SDS011;51027;42.162;24.754;2023-04-06T05:46:08;19.52;;;8.32;;
64615;SDS011;51027;42.162;24.754;2023-04-06T05:48:33;17.70;;;7.68;;
64615;SDS011;51027;42.162;24.754;2023-04-06T05:50:59;16.08;;;6.95;;
64615;SDS011;51027;42.162;24.754;2023-04-06T05:53:25;22.85;;;7.97;;
64615;SDS011;51027;42.162;24.754;2023-04-06T05:55:54;20.17;;;6.70;;
64615;SDS011;51027;42.162;24.754;2023-04-06T05:58:19;17.48;;;7.25;;
64615;SDS011;51027;42.162;24.754;2023-04-06T06:00:45;20.88;;;8.57;;
64615;SDS011;51027;42.162;24.754;2023-04-06T06:03:11;16.83;;;6.97;;
64615;SDS011;51027;42.162;24.754;2023-04-06T06:05:37;18.27;;;8.02;;
64615;SDS011;51027;42.162;24.754;2023-04-06T06:08:03;18.50;;;7.00;;
64615;SDS011;51027;42.162;24.754;2023-04-06T06:10:28;18.67;;;6.68;;
64615;SDS011;51027;42.162;24.754;2023-04-06T06:12:54;19.40;;;7.43;;
64615;SDS011;51027;42.162;24.754;2023-04-06T06:15:19;17.15;;;7.13;;
64615;SDS011;51027;42.162;24.754;2023-04-06T06:17:45;19.65;;;7.38;;
64615;SDS011;51027;42.162;24.754;2023-04-06T06:20:11;18.45;;;7.38;;
64615;SDS011;51027;42.162;24.754;2023-04-06T06:22:36;18.42;;;7.32;;
64615;SDS011;51027;42.162;24.754;2023-04-06T06:25:02;16.38;;;6.80;;
64615;SDS011;51027;42.162;24.754;2023-04-06T06:27:28;17.60;;;7.82;;
64615;SDS011;51027;42.162;24.754;2023-04-06T06:29:53;17.10;;;7.03;;
64615;SDS011;51027;42.162;24.754;2023-04-06T06:32:19;16.80;;;6.47;;
64615;SDS011;51027;42.162;24.754;2023-04-06T06:34:44;14.50;;;6.28;;
64615;SDS011;51027;42.162;24.754;2023-04-06T06:37:10;18.55;;;6.93;;
64615;SDS011;51027;42.162;24.754;2023-04-06T06:39:35;18.63;;;7.05;;
64615;SDS011;51027;42.162;24.754;2023-04-06T06:42:01;18.80;;;7.15;;
64615;SDS011;51027;42.162;24.754;2023-04-06T06:44:27;15.18;;;6.35;;
64615;SDS011;51027;42.162;24.754;2023-04-06T06:46:52;16.45;;;6.57;;
64615;SDS011;51027;42.162;24.754;2023-04-06T06:49:18;16.83;;;6.97;;
64615;SDS011;51027;42.162;24.754;2023-04-06T06:51:44;16.42;;;6.00;;
64615;SDS011;51027;42.162;24.754;2023-04-06T06:54:10;16.13;;;7.20;;
64615;SDS011;51027;42.162;24.754;2023-04-06T06:56:36;17.30;;;6.78;;
64615;SDS011;51027;42.162;24.754;2023-04-06T06:59:03;17.52;;;7.30;;
64615;SDS011;51027;42.162;24.754;2023-04-06T07:01:28;16.13;;;6.18;;
64615;SDS011;51027;42.162;24.754;2023-04-06T07:03:54;18.40;;;6.75;;
64615;SDS011;51027;42.162;24.754;2023-04-06T07:06:20;17.35;;;6.47;;
64615;SDS011;51027;42.162;24.754;2023-04-06T07:08:46;16.83;;;6.47;;
64615;SDS011;51027;42.162;24.754;2023-04-06T07:11:11;16.58;;;6.82;;
64615;SDS011;51027;42.162;24.754;2023-04-06T07:13:36;19.80;;;7.38;;
64615;SDS011;51027;42.162;24.754;2023-04-06T07:16:02;18.75;;;7.45;;
64615;SDS011;51027;42.162;24.754;2023-04-06T07:18:27;16.50;;;6.13;;
64615;SDS011;51027;42.162;24.754;2023-04-06T07:20:53;15.70;;;6.57;;
64615;SDS011;51027;42.162;24.754;2023-04-06T07:23:18;16.60;;;6.80;;
64615;SDS011;51027;42.162;24.754;2023-04-06T07:25:44;15.48;;;6.20;;
64615;SDS011;51027;42.162;24.754;2023-04-06T07:28:10;15.02;;;5.30;;
64615;SDS011;51027;42.162;24.754;2023-04-06T07:30:36;17.65;;;6.65;;
64615;SDS011;51027;42.162;24.754;2023-04-06T07:33:02;17.27;;;7.43;;
64615;SDS011;51027;42.162;24.754;2023-04-06T07:35:28;15.45;;;6.10;;
64615;SDS011;51027;42.162;24.754;2023-04-06T07:37:55;16.88;;;6.88;;
64615;SDS011;51027;42.162;24.754;2023-04-06T07:40:20;15.80;;;6.15;;
64615;SDS011;51027;42.162;24.754;2023-04-06T07:42:46;16.27;;;6.78;;
64615;SDS011;51027;42.162;24.754;2023-04-06T07:45:12;15.43;;;6.65;;
64615;SDS011;51027;42.162;24.754;2023-04-06T07:47:38;13.95;;;6.03;;
64615;SDS011;51027;42.162;24.754;2023-04-06T07:50:04;19.00;;;7.80;;
64615;SDS011;51027;42.162;24.754;2023-04-06T07:52:30;17.63;;;7.05;;
64615;SDS011;51027;42.162;24.754;2023-04-06T07:54:57;14.25;;;5.78;;
64615;SDS011;51027;42.162;24.754;2023-04-06T07:57:23;15.68;;;6.03;;
64615;SDS011;51027;42.162;24.754;2023-04-06T07:59:48;15.68;;;6.13;;
64615;SDS011;51027;42.162;24.754;2023-04-06T08:02:14;15.63;;;6.15;;
64615;SDS011;51027;42.162;24.754;2023-04-06T08:04:39;15.63;;;6.63;;
64615;SDS011;51027;42.162;24.754;2023-04-06T08:07:05;18.20;;;7.05;;
64615;SDS011;51027;42.162;24.754;2023-04-06T08:09:30;16.85;;;5.72;;
64615;SDS011;51027;42.162;24.754;2023-04-06T08:11:56;17.05;;;6.55;;
64615;SDS011;51027;42.162;24.754;2023-04-06T08:14:21;16.52;;;6.40;;
64615;SDS011;51027;42.162;24.754;2023-04-06T08:16:47;20.02;;;7.50;;
64615;SDS011;51027;42.162;24.754;2023-04-06T08:19:12;16.85;;;6.07;;
64615;SDS011;51027;42.162;24.754;2023-04-06T08:21:38;16.88;;;6.47;;
64615;SDS011;51027;42.162;24.754;2023-04-06T08:24:05;16.50;;;6.75;;
64615;SDS011;51027;42.162;24.754;2023-04-06T08:26:31;15.23;;;6.13;;
64615;SDS011;51027;42.162;24.754;2023-04-06T08:28:56;17.70;;;7.30;;
64615;SDS011;51027;42.162;24.754;2023-04-06T08:31:22;16.63;;;6.80;;
64615;SDS011;51027;42.162;24.754;2023-04-06T08:33:47;16.98;;;5.57;;
64615;SDS011;51027;42.162;24.754;2023-04-06T08:36:13;15.00;;;6.20;;
64615;SDS011;51027;42.162;24.754;2023-04-06T08:38:40;17.33;;;6.75;;
64615;SDS011;51027;42.162;24.754;2023-04-06T08:41:11;16.15;;;6.45;;
64615;SDS011;51027;42.162;24.754;2023-04-06T08:43:44;14.82;;;5.63;;
64615;SDS011;51027;42.162;24.754;2023-04-06T08:46:12;16.33;;;6.50;;
64615;SDS011;51027;42.162;24.754;2023-04-06T08:48:38;19.25;;;6.22;;
64615;SDS011;51027;42.162;24.754;2023-04-06T08:51:06;15.27;;;6.00;;
64615;SDS011;51027;42.162;24.754;2023-04-06T08:53:33;16.65;;;5.85;;
64615;SDS011;51027;42.162;24.754;2023-04-06T08:55:58;17.58;;;6.70;;
64615;SDS011;51027;42.162;24.754;2023-04-06T08:58:25;15.65;;;5.80;;
64615;SDS011;51027;42.162;24.754;2023-04-06T09:00:55;16.48;;;6.93;;
64615;SDS011;51027;42.162;24.754;2023-04-06T09:03:21;15.45;;;6.30;;
64615;SDS011;51027;42.162;24.754;2023-04-06T09:05:48;15.90;;;5.93;;
64615;SDS011;51027;42.162;24.754;2023-04-06T09:08:15;15.18;;;5.85;;
64615;SDS011;51027;42.162;24.754;2023-04-06T09:10:40;15.30;;;5.35;;
64615;SDS011;51027;42.162;24.754;2023-04-06T09:13:06;15.13;;;5.38;;
64615;SDS011;51027;42.162;24.754;2023-04-06T09:15:32;14.75;;;5.53;;
64615;SDS011;51027;42.162;24.754;2023-04-06T09:17:58;13.68;;;5.40;;
64615;SDS011;51027;42.162;24.754;2023-04-06T09:20:25;12.57;;;4.40;;
64615;SDS011;51027;42.162;24.754;2023-04-06T09:22:51;12.02;;;4.82;;
64615;SDS011;51027;42.162;24.754;2023-04-06T09:25:21;11.68;;;3.92;;
64615;SDS011;51027;42.162;24.754;2023-04-06T09:27:48;12.20;;;4.38;;
64615;SDS011;51027;42.162;24.754;2023-04-06T09:30:22;14.40;;;4.63;;
64615;SDS011;51027;42.162;24.754;2023-04-06T09:32:50;12.32;;;4.25;;
64615;SDS011;51027;42.162;24.754;2023-04-06T09:35:17;11.65;;;4.15;;
64615;SDS011;51027;42.162;24.754;2023-04-06T09:37:45;12.70;;;4.38;;
64615;SDS011;51027;42.162;24.754;2023-04-06T09:40:12;12.48;;;4.18;;
64615;SDS011;51027;42.162;24.754;2023-04-06T09:42:40;10.18;;;3.67;;
64615;SDS011;51027;42.162;24.754;2023-04-06T09:45:07;12.27;;;4.50;;
64615;SDS011;51027;42.162;24.754;2023-04-06T09:47:34;13.38;;;4.57;;
64615;SDS011;51027;42.162;24.754;2023-04-06T09:50:01;11.32;;;4.70;;
64615;SDS011;51027;42.162;24.754;2023-04-06T09:52:31;13.43;;;4.80;;
64615;SDS011;51027;42.162;24.754;2023-04-06T09:55:02;14.80;;;5.22;;
64615;SDS011;51027;42.162;24.754;2023-04-06T09:57:30;14.02;;;4.75;;
64615;SDS011;51027;42.162;24.754;2023-04-06T10:00:03;15.43;;;5.43;;
64615;SDS011;51027;42.162;24.754;2023-04-06T10:08:06;13.38;;;4.05;;
64615;SDS011;51027;42.162;24.754;2023-04-06T10:10:34;12.27;;;4.38;;
64615;SDS011;51027;42.162;24.754;2023-04-06T10:12:59;13.98;;;5.22;;
64615;SDS011;51027;42.162;24.754;2023-04-06T10:15:27;16.13;;;5.90;;
64615;SDS011;51027;42.162;24.754;2023-04-06T10:17:54;15.40;;;6.10;;
64615;SDS011;51027;42.162;24.754;2023-04-06T10:20:25;14.35;;;5.07;;
64615;SDS011;51027;42.162;24.754;2023-04-06T10:22:56;14.50;;;5.10;;
64615;SDS011;51027;42.162;24.754;2023-04-06T10:25:39;14.23;;;4.95;;
64615;SDS011;51027;42.162;24.754;2023-04-06T10:28:05;13.00;;;4.68;;
64615;SDS011;51027;42.162;24.754;2023-04-06T10:30:35;14.65;;;4.93;;
64615;SDS011;51027;42.162;24.754;2023-04-06T10:33:39;14.90;;;5.10;;
64615;SDS011;51027;42.162;24.754;2023-04-06T10:36:09;14.50;;;5.22;;
64615;SDS011;51027;42.162;24.754;2023-04-06T10:38:36;12.95;;;5.25;;
64615;SDS011;51027;42.162;24.754;2023-04-06T10:41:03;12.38;;;4.65;;
64615;SDS011;51027;42.162;24.754;2023-04-06T10:43:32;13.60;;;4.70;;
64615;SDS011;51027;42.162;24.754;2023-04-06T10:48:36;12.50;;;4.45;;
64615;SDS011;51027;42.162;24.754;2023-04-06T10:51:07;13.85;;;5.00;;
64615;SDS011;51027;42.162;24.754;2023-04-06T10:53:34;14.40;;;4.97;;
64615;SDS011;51027;42.162;24.754;2023-04-06T10:56:00;13.27;;;5.05;;
64615;SDS011;51027;42.162;24.754;2023-04-06T10:58:27;15.35;;;5.20;;
64615;SDS011;51027;42.162;24.754;2023-04-06T11:00:53;12.63;;;4.07;;
64615;SDS011;51027;42.162;24.754;2023-04-06T11:03:19;13.70;;;5.00;;
64615;SDS011;51027;42.162;24.754;2023-04-06T11:05:45;12.95;;;3.92;;
64615;SDS011;51027;42.162;24.754;2023-04-06T11:08:22;12.98;;;4.32;;
64615;SDS011;51027;42.162;24.754;2023-04-06T11:11:07;14.95;;;4.72;;
64615;SDS011;51027;42.162;24.754;2023-04-06T11:13:52;13.63;;;4.80;;
64615;SDS011;51027;42.162;24.754;2023-04-06T11:16:22;13.50;;;4.93;;
64615;SDS011;51027;42.162;24.754;2023-04-06T11:18:56;13.38;;;4.80;;
64615;SDS011;51027;42.162;24.754;2023-04-06T11:24:19;12.75;;;4.57;;
64615;SDS011;51027;42.162;24.754;2023-04-06T11:26:55;16.33;;;5.32;;
64615;SDS011;51027;42.162;24.754;2023-04-06T11:29:22;12.52;;;4.60;;
64615;SDS011;51027;42.162;24.754;2023-04-06T11:31:50;15.57;;;4.95;;
64615;SDS011;51027;42.162;24.754;2023-04-06T11:34:18;14.98;;;5.38;;
64615;SDS011;51027;42.162;24.754;2023-04-06T11:36:48;13.85;;;4.90;;
64615;SDS011;51027;42.162;24.754;2023-04-06T11:39:20;14.95;;;5.07;;
64615;SDS011;51027;42.162;24.754;2023-04-06T11:41:51;15.10;;;5.20;;
64615;SDS011;51027;42.162;24.754;2023-04-06T11:44:38;13.40;;;4.72;;
64615;SDS011;51027;42.162;24.754;2023-04-06T11:47:09;10.75;;;4.50;;
64615;SDS011;51027;42.162;24.754;2023-04-06T11:49:39;11.57;;;4.07;;
64615;SDS011;51027;42.162;24.754;2023-04-06T11:52:19;12.90;;;4.75;;
64615;SDS011;51027;42.162;24.754;2023-04-06T11:54:47;13.80;;;5.03;;
64615;SDS011;51027;42.162;24.754;2023-04-06T11:57:14;12.10;;;4.45;;
64615;SDS011;51027;42.162;24.754;2023-04-06T11:59:40;13.48;;;4.93;;
64615;SDS011;51027;42.162;24.754;2023-04-06T12:02:06;13.70;;;5.00;;
64615;SDS011;51027;42.162;24.754;2023-04-06T12:04:32;14.68;;;5.20;;
64615;SDS011;51027;42.162;24.754;2023-04-06T12:06:57;15.32;;;5.35;;
64615;SDS011;51027;42.162;24.754;2023-04-06T12:09:23;14.85;;;4.80;;
64615;SDS011;51027;42.162;24.754;2023-04-06T12:11:49;14.73;;;4.78;;
64615;SDS011;51027;42.162;24.754;2023-04-06T12:14:14;14.60;;;5.45;;
64615;SDS011;51027;42.162;24.754;2023-04-06T12:16:40;16.35;;;5.40;;
64615;SDS011;51027;42.162;24.754;2023-04-06T12:19:05;15.95;;;5.55;;
64615;SDS011;51027;42.162;24.754;2023-04-06T12:21:31;15.23;;;5.40;;
64615;SDS011;51027;42.162;24.754;2023-04-06T12:23:57;16.13;;;5.78;;
64615;SDS011;51027;42.162;24.754;2023-04-06T12:26:23;15.80;;;5.38;;
64615;SDS011;51027;42.162;24.754;2023-04-06T12:28:49;14.93;;;5.25;;
64615;SDS011;51027;42.162;24.754;2023-04-06T12:31:15;15.77;;;5.70;;
64615;SDS011;51027;42.162;24.754;2023-04-06T12:33:42;15.15;;;5.65;;
64615;SDS011;51027;42.162;24.754;2023-04-06T12:36:13;14.57;;;5.50;;
64615;SDS011;51027;42.162;24.754;2023-04-06T12:38:40;13.90;;;4.90;;
64615;SDS011;51027;42.162;24.754;2023-04-06T12:41:06;14.75;;;5.32;;
64615;SDS011;51027;42.162;24.754;2023-04-06T12:43:32;14.07;;;5.10;;
64615;SDS011;51027;42.162;24.754;2023-04-06T12:45:57;13.43;;;5.05;;
64615;SDS011;51027;42.162;24.754;2023-04-06T12:48:24;15.77;;;5.63;;
64615;SDS011;51027;42.162;24.754;2023-04-06T12:50:54;13.88;;;5.10;;
64615;SDS011;51027;42.162;24.754;2023-04-06T12:53:20;17.42;;;5.90;;
64615;SDS011;51027;42.162;24.754;2023-04-06T12:55:46;15.10;;;5.82;;
64615;SDS011;51027;42.162;24.754;2023-04-06T12:58:11;16.80;;;5.88;;
64615;SDS011;51027;42.162;24.754;2023-04-06T13:00:36;14.50;;;5.55;;
64615;SDS011;51027;42.162;24.754;2023-04-06T13:03:02;16.58;;;5.95;;
64615;SDS011;51027;42.162;24.754;2023-04-06T13:05:27;17.20;;;5.93;;
64615;SDS011;51027;42.162;24.754;2023-04-06T13:07:53;14.80;;;5.47;;
64615;SDS011;51027;42.162;24.754;2023-04-06T13:10:18;14.13;;;5.32;;
64615;SDS011;51027;42.162;24.754;2023-04-06T13:12:44;15.50;;;4.70;;
64615;SDS011;51027;42.162;24.754;2023-04-06T13:15:09;14.50;;;5.45;;
64615;SDS011;51027;42.162;24.754;2023-04-06T13:17:35;15.45;;;5.70;;
64615;SDS011;51027;42.162;24.754;2023-04-06T13:20:00;14.65;;;5.78;;
64615;SDS011;51027;42.162;24.754;2023-04-06T13:22:26;16.75;;;6.22;;
64615;SDS011;51027;42.162;24.754;2023-04-06T13:24:52;16.23;;;6.25;;
64615;SDS011;51027;42.162;24.754;2023-04-06T13:27:17;16.63;;;6.35;;
64615;SDS011;51027;42.162;24.754;2023-04-06T13:29:43;11.43;;;4.53;;
64615;SDS011;51027;42.162;24.754;2023-04-06T13:32:08;15.18;;;5.60;;
64615;SDS011;51027;42.162;24.754;2023-04-06T13:34:35;14.68;;;5.70;;
64615;SDS011;51027;42.162;24.754;2023-04-06T13:37:00;16.48;;;5.70;;
64615;SDS011;51027;42.162;24.754;2023-04-06T13:39:26;14.60;;;4.88;;
64615;SDS011;51027;42.162;24.754;2023-04-06T13:41:53;18.27;;;6.40;;
64615;SDS011;51027;42.162;24.754;2023-04-06T13:44:21;14.43;;;5.38;;
64615;SDS011;51027;42.162;24.754;2023-04-06T13:46:46;15.63;;;6.40;;
64615;SDS011;51027;42.162;24.754;2023-04-06T13:49:12;16.90;;;6.50;;
64615;SDS011;51027;42.162;24.754;2023-04-06T13:51:38;13.80;;;5.55;;
64615;SDS011;51027;42.162;24.754;2023-04-06T13:54:04;16.48;;;6.07;;
64615;SDS011;51027;42.162;24.754;2023-04-06T13:56:29;15.00;;;5.88;;
64615;SDS011;51027;42.162;24.754;2023-04-06T13:58:55;14.43;;;5.75;;
64615;SDS011;51027;42.162;24.754;2023-04-06T14:01:21;16.35;;;6.68;;
64615;SDS011;51027;42.162;24.754;2023-04-06T14:03:48;15.57;;;5.60;;
64615;SDS011;51027;42.162;24.754;2023-04-06T14:06:13;15.30;;;5.13;;
64615;SDS011;51027;42.162;24.754;2023-04-06T14:08:39;12.68;;;4.43;;
64615;SDS011;51027;42.162;24.754;2023-04-06T14:11:06;14.65;;;5.63;;
64615;SDS011;51027;42.162;24.754;2023-04-06T14:13:36;15.55;;;5.13;;
64615;SDS011;51027;42.162;24.754;2023-04-06T14:16:02;16.38;;;5.75;;
64615;SDS011;51027;42.162;24.754;2023-04-06T14:18:28;15.00;;;5.60;;
64615;SDS011;51027;42.162;24.754;2023-04-06T14:20:55;11.30;;;4.38;;
64615;SDS011;51027;42.162;24.754;2023-04-06T14:23:22;11.52;;;4.85;;
64615;SDS011;51027;42.162;24.754;2023-04-06T14:25:48;15.30;;;5.00;;
64615;SDS011;51027;42.162;24.754;2023-04-06T14:28:13;13.75;;;4.95;;